METAR Data
IDs: Format: Raw Decoded Include TAF

Data at: 0307 UTC 20 Jan 2022

METAR for:KSPB (Scappoose Ind Airpar, OR, US)
Text:KSPB 200304Z AUTO 00000KT 4SM BR OVC004 08/08 A3030 RMK AO2 T00830078
Temperature: 8.3°C ( 47°F)
Dewpoint: 7.8°C ( 46°F) [RH = 97%]
Pressure (altimeter):30.30 inches Hg (1026.2 mb)
Winds:calm
Visibility: 4 sm ( 6 km)
Ceiling:400 feet AGL
Clouds: overcast cloud deck at 400 feet AGL
Weather:BR (mist)
QC Flag:automated observation with no human augmentation